KMIB

Minot AFB Airport

Minot, North Dakota, USA
TAF KMIB 190100Z 1901/2007 VRB06KT 9999 FEW070 BKN090 QNH3031INS BECMG 1911/1912 VRB06KT 9999 SCT015 OVC025 620254 QNH3029INS BECMG 1923/1924 10012KT 6000 -SN SCT010 OVC015 620157 QNH2997INS TEMPO 2001/2004 1600 -SN TXM12/1912Z TNM22/1903Z
Issued Valid From Valid To
Jan-19 @ 01:00 UTC
(an hour ago)
Jan-19 @ 01:00 UTC
(an hour ago)
Jan-20 @ 07:00 UTC
(-1 days ago)
Jan-19 @ 01:00 to Jan-19 @ 11:00
TAF KMIB 190100Z 1901/2007 VRB06KT 9999 FEW070 BKN090 QNH3031INS
Wind Visibility Clouds Readings
Variable at 6 knots Greater than 6 miles
  • Few at 7,000' AGL
  • Broken at 9,000' AGL
Altimeter 30.3" Hg
Pressure 1025.92 hPa
Becoming Jan-19 @ 11:00 to Jan-19 @ 23:00
BECMG 1911/1912 VRB06KT 9999 SCT015 OVC025 620254 QNH3029INS
Wind Visibility Clouds Readings Icing
Variable at 6 knots Greater than 6 miles
  • Scattered at 1,500' AGL
  • Overcast at 2,500' AGL
Altimeter 30.3" Hg
Pressure 1025.92 hPa
Light icing in cloud expected at 2,500' AGL extending to 6,500' AGL
Becoming Jan-19 @ 23:00 to Jan-20 @ 07:00
BECMG 1923/1924 10012KT 6000 -SN SCT010 OVC015 620157 QNH2997INS
Wind Visibility Clouds Conditions Readings Icing
100° at 12 knots 373 miles
  • Scattered at 1,000' AGL
  • Overcast at 1,500' AGL
  • Light Snow
Altimeter 29.97" Hg
Pressure 1014.92 hPa
Light icing in cloud expected at 1,500' AGL extending to 8,500' AGL
Temporary Jan-20 @ 01:00 to Jan-20 @ 04:00
TEMPO 2001/2004 1600 -SN TXM12/1912Z TNM22/1903Z
Visibility Conditions
99 miles
  • Light Snow
TAF KMIB 190100Z 1901/2007 VRB06KT 9999 FEW070 BKN090 QNH3031INS BECMG 1911/1912 VRB06KT 9999 SCT015 OVC025 620254 QNH3029INS BECMG 1923/1924 10012KT 6000 -SN SCT010 OVC015 620157 QNH2997INS TEMPO 2001/2004 1600 -SN TXM12/1912Z TNM22/1903Z
Issued Jan-19 @ 01:00 UTC
(an hour ago)
Valid From Jan-19 @ 01:00 UTC
(an hour ago)
Valid To Jan-20 @ 07:00 UTC
(-1 days ago)
Jan-19 @ 01:00 - Jan-19 @ 11:00
Wind Visibility
Variable at 6 knots Greater than 6 miles
Clouds
  • Few at 7,000' AGL
  • Broken at 9,000' AGL
Becoming Jan-19 @ 11:00 - Jan-19 @ 23:00
Wind Visibility
Variable at 6 knots Greater than 6 miles
Clouds
  • Scattered at 1,500' AGL
  • Overcast at 2,500' AGL
Becoming Jan-19 @ 23:00 - Jan-20 @ 07:00
Wind Visibility
100° at 12 knots 373 miles
Clouds
  • Scattered at 1,000' AGL
  • Overcast at 1,500' AGL
Conditions
  • Light Snow
Temporary Jan-20 @ 01:00 - Jan-20 @ 04:00
Conditions
  • Light Snow